sensor_id;sensor_type;location;lat;lon;timestamp;P1;durP1;ratioP1;P2;durP2;ratioP2
56391;SDS011;42289;53.582;9.714;2022-12-24T00:01:00;47.38;;;15.80;;
56391;SDS011;42289;53.582;9.714;2022-12-24T00:03:27;44.72;;;14.45;;
56391;SDS011;42289;53.582;9.714;2022-12-24T00:05:53;43.63;;;15.35;;
56391;SDS011;42289;53.582;9.714;2022-12-24T00:08:20;43.72;;;15.50;;
56391;SDS011;42289;53.582;9.714;2022-12-24T00:10:51;37.58;;;14.10;;
56391;SDS011;42289;53.582;9.714;2022-12-24T00:13:18;43.85;;;15.02;;
56391;SDS011;42289;53.582;9.714;2022-12-24T00:15:44;41.78;;;15.52;;
56391;SDS011;42289;53.582;9.714;2022-12-24T00:18:11;39.25;;;13.65;;
56391;SDS011;42289;53.582;9.714;2022-12-24T00:20:37;43.22;;;13.93;;
56391;SDS011;42289;53.582;9.714;2022-12-24T00:23:04;44.05;;;13.82;;
56391;SDS011;42289;53.582;9.714;2022-12-24T00:25:30;44.42;;;14.05;;
56391;SDS011;42289;53.582;9.714;2022-12-24T00:27:58;43.17;;;13.90;;
56391;SDS011;42289;53.582;9.714;2022-12-24T00:30:24;40.28;;;13.80;;
56391;SDS011;42289;53.582;9.714;2022-12-24T00:32:51;46.08;;;14.93;;
56391;SDS011;42289;53.582;9.714;2022-12-24T00:35:17;42.17;;;14.45;;
56391;SDS011;42289;53.582;9.714;2022-12-24T00:37:45;43.15;;;13.73;;
56391;SDS011;42289;53.582;9.714;2022-12-24T00:40:12;43.83;;;14.25;;
56391;SDS011;42289;53.582;9.714;2022-12-24T00:42:38;41.03;;;14.13;;
56391;SDS011;42289;53.582;9.714;2022-12-24T00:45:07;41.00;;;13.98;;
56391;SDS011;42289;53.582;9.714;2022-12-24T00:47:34;43.33;;;14.15;;
56391;SDS011;42289;53.582;9.714;2022-12-24T00:50:00;43.20;;;14.27;;
56391;SDS011;42289;53.582;9.714;2022-12-24T00:52:27;41.95;;;14.32;;
56391;SDS011;42289;53.582;9.714;2022-12-24T00:54:53;41.92;;;12.98;;
56391;SDS011;42289;53.582;9.714;2022-12-24T00:57:20;44.33;;;14.10;;
56391;SDS011;42289;53.582;9.714;2022-12-24T00:59:46;50.47;;;14.90;;
56391;SDS011;42289;53.582;9.714;2022-12-24T01:02:14;43.75;;;14.32;;
56391;SDS011;42289;53.582;9.714;2022-12-24T01:04:41;45.28;;;13.23;;
56391;SDS011;42289;53.582;9.714;2022-12-24T01:07:33;40.88;;;14.00;;
56391;SDS011;42289;53.582;9.714;2022-12-24T01:09:59;48.25;;;14.90;;
56391;SDS011;42289;53.582;9.714;2022-12-24T01:12:26;51.53;;;14.50;;
56391;SDS011;42289;53.582;9.714;2022-12-24T01:14:52;39.25;;;14.65;;
56391;SDS011;42289;53.582;9.714;2022-12-24T01:17:20;53.05;;;14.32;;
56391;SDS011;42289;53.582;9.714;2022-12-24T01:19:47;51.92;;;14.55;;
56391;SDS011;42289;53.582;9.714;2022-12-24T01:22:13;46.55;;;14.10;;
56391;SDS011;42289;53.582;9.714;2022-12-24T01:24:40;43.85;;;13.73;;
56391;SDS011;42289;53.582;9.714;2022-12-24T01:27:07;44.90;;;14.75;;
56391;SDS011;42289;53.582;9.714;2022-12-24T01:29:33;45.90;;;14.73;;
56391;SDS011;42289;53.582;9.714;2022-12-24T01:32:00;47.72;;;14.27;;
56391;SDS011;42289;53.582;9.714;2022-12-24T01:34:28;43.47;;;14.27;;
56391;SDS011;42289;53.582;9.714;2022-12-24T01:36:54;46.58;;;14.07;;
56391;SDS011;42289;53.582;9.714;2022-12-24T01:39:21;51.45;;;14.73;;
56391;SDS011;42289;53.582;9.714;2022-12-24T01:41:47;40.70;;;14.10;;
56391;SDS011;42289;53.582;9.714;2022-12-24T01:47:00;52.80;;;14.02;;
56391;SDS011;42289;53.582;9.714;2022-12-24T01:49:33;42.60;;;13.60;;
56391;SDS011;42289;53.582;9.714;2022-12-24T01:52:01;49.88;;;15.13;;
56391;SDS011;42289;53.582;9.714;2022-12-24T01:54:31;56.38;;;14.10;;
56391;SDS011;42289;53.582;9.714;2022-12-24T01:57:04;46.28;;;14.73;;
56391;SDS011;42289;53.582;9.714;2022-12-24T01:59:34;41.38;;;14.52;;
56391;SDS011;42289;53.582;9.714;2022-12-24T02:02:02;53.05;;;14.65;;
56391;SDS011;42289;53.582;9.714;2022-12-24T02:04:31;53.28;;;14.88;;
56391;SDS011;42289;53.582;9.714;2022-12-24T02:07:02;48.93;;;14.03;;
56391;SDS011;42289;53.582;9.714;2022-12-24T02:09:29;49.47;;;15.23;;
56391;SDS011;42289;53.582;9.714;2022-12-24T02:11:57;42.65;;;13.95;;
56391;SDS011;42289;53.582;9.714;2022-12-24T02:14:24;50.67;;;14.77;;
56391;SDS011;42289;53.582;9.714;2022-12-24T02:16:53;58.85;;;15.82;;
56391;SDS011;42289;53.582;9.714;2022-12-24T02:19:33;43.40;;;13.80;;
56391;SDS011;42289;53.582;9.714;2022-12-24T02:22:39;54.50;;;14.73;;
56391;SDS011;42289;53.582;9.714;2022-12-24T02:25:23;51.30;;;14.75;;
56391;SDS011;42289;53.582;9.714;2022-12-24T02:28:08;51.40;;;15.05;;
56391;SDS011;42289;53.582;9.714;2022-12-24T02:30:49;54.45;;;16.25;;
56391;SDS011;42289;53.582;9.714;2022-12-24T02:33:24;55.83;;;15.15;;
56391;SDS011;42289;53.582;9.714;2022-12-24T02:35:56;47.20;;;15.15;;
56391;SDS011;42289;53.582;9.714;2022-12-24T02:38:27;43.30;;;14.27;;
56391;SDS011;42289;53.582;9.714;2022-12-24T02:41:00;50.40;;;14.80;;
56391;SDS011;42289;53.582;9.714;2022-12-24T02:43:32;52.55;;;14.95;;
56391;SDS011;42289;53.582;9.714;2022-12-24T02:46:03;48.00;;;15.00;;
56391;SDS011;42289;53.582;9.714;2022-12-24T02:48:33;51.00;;;15.32;;
56391;SDS011;42289;53.582;9.714;2022-12-24T02:51:03;49.53;;;15.93;;
56391;SDS011;42289;53.582;9.714;2022-12-24T02:53:32;51.92;;;15.50;;
56391;SDS011;42289;53.582;9.714;2022-12-24T02:58:51;52.85;;;15.00;;
56391;SDS011;42289;53.582;9.714;2022-12-24T03:01:32;49.60;;;15.05;;
56391;SDS011;42289;53.582;9.714;2022-12-24T03:04:11;53.30;;;15.07;;
56391;SDS011;42289;53.582;9.714;2022-12-24T03:07:04;49.97;;;14.85;;
56391;SDS011;42289;53.582;9.714;2022-12-24T03:09:38;51.30;;;16.30;;
56391;SDS011;42289;53.582;9.714;2022-12-24T03:12:18;44.38;;;14.50;;
56391;SDS011;42289;53.582;9.714;2022-12-24T03:14:49;53.03;;;15.90;;
56391;SDS011;42289;53.582;9.714;2022-12-24T03:17:17;44.55;;;14.48;;
56391;SDS011;42289;53.582;9.714;2022-12-24T03:19:45;48.30;;;14.93;;
56391;SDS011;42289;53.582;9.714;2022-12-24T03:22:12;46.35;;;14.70;;
56391;SDS011;42289;53.582;9.714;2022-12-24T03:24:38;54.28;;;16.20;;
56391;SDS011;42289;53.582;9.714;2022-12-24T03:27:05;45.50;;;14.57;;
56391;SDS011;42289;53.582;9.714;2022-12-24T03:29:33;44.10;;;14.20;;
56391;SDS011;42289;53.582;9.714;2022-12-24T03:32:01;48.63;;;15.25;;
56391;SDS011;42289;53.582;9.714;2022-12-24T03:34:30;47.60;;;14.93;;
56391;SDS011;42289;53.582;9.714;2022-12-24T03:36:57;43.88;;;14.52;;
56391;SDS011;42289;53.582;9.714;2022-12-24T03:39:23;48.10;;;14.90;;
56391;SDS011;42289;53.582;9.714;2022-12-24T03:41:49;47.78;;;14.80;;
56391;SDS011;42289;53.582;9.714;2022-12-24T03:44:16;46.70;;;14.55;;
56391;SDS011;42289;53.582;9.714;2022-12-24T03:46:42;44.92;;;14.77;;
56391;SDS011;42289;53.582;9.714;2022-12-24T03:49:09;43.63;;;14.00;;
56391;SDS011;42289;53.582;9.714;2022-12-24T03:51:36;50.35;;;15.20;;
56391;SDS011;42289;53.582;9.714;2022-12-24T03:54:03;42.65;;;15.32;;
56391;SDS011;42289;53.582;9.714;2022-12-24T03:56:29;42.35;;;14.43;;
56391;SDS011;42289;53.582;9.714;2022-12-24T03:58:56;45.38;;;14.65;;
56391;SDS011;42289;53.582;9.714;2022-12-24T04:01:22;45.17;;;15.10;;
56391;SDS011;42289;53.582;9.714;2022-12-24T04:03:48;39.70;;;13.75;;
56391;SDS011;42289;53.582;9.714;2022-12-24T04:06:15;39.38;;;13.55;;
56391;SDS011;42289;53.582;9.714;2022-12-24T04:08:44;45.95;;;14.70;;
56391;SDS011;42289;53.582;9.714;2022-12-24T04:11:11;45.47;;;13.90;;
56391;SDS011;42289;53.582;9.714;2022-12-24T04:13:39;45.30;;;15.07;;
56391;SDS011;42289;53.582;9.714;2022-12-24T04:16:06;41.10;;;14.00;;
56391;SDS011;42289;53.582;9.714;2022-12-24T04:18:34;45.33;;;14.82;;
56391;SDS011;42289;53.582;9.714;2022-12-24T04:21:01;42.25;;;13.80;;
56391;SDS011;42289;53.582;9.714;2022-12-24T04:23:29;39.85;;;13.80;;
56391;SDS011;42289;53.582;9.714;2022-12-24T04:25:58;40.90;;;13.90;;
56391;SDS011;42289;53.582;9.714;2022-12-24T04:28:25;42.63;;;13.82;;
56391;SDS011;42289;53.582;9.714;2022-12-24T04:30:56;35.55;;;13.18;;
56391;SDS011;42289;53.582;9.714;2022-12-24T04:33:23;37.90;;;13.13;;
56391;SDS011;42289;53.582;9.714;2022-12-24T04:35:49;33.55;;;12.13;;
56391;SDS011;42289;53.582;9.714;2022-12-24T04:38:16;33.33;;;12.30;;
56391;SDS011;42289;53.582;9.714;2022-12-24T04:40:42;34.88;;;11.73;;
56391;SDS011;42289;53.582;9.714;2022-12-24T04:43:10;40.50;;;13.25;;
56391;SDS011;42289;53.582;9.714;2022-12-24T04:45:37;38.22;;;12.73;;
56391;SDS011;42289;53.582;9.714;2022-12-24T04:48:03;36.90;;;13.05;;
56391;SDS011;42289;53.582;9.714;2022-12-24T04:50:30;39.80;;;13.55;;
56391;SDS011;42289;53.582;9.714;2022-12-24T04:52:56;47.08;;;13.13;;
56391;SDS011;42289;53.582;9.714;2022-12-24T04:55:23;41.42;;;13.32;;
56391;SDS011;42289;53.582;9.714;2022-12-24T04:57:50;46.67;;;13.75;;
56391;SDS011;42289;53.582;9.714;2022-12-24T05:00:18;41.42;;;12.75;;
56391;SDS011;42289;53.582;9.714;2022-12-24T05:02:45;36.13;;;13.40;;
56391;SDS011;42289;53.582;9.714;2022-12-24T05:05:11;40.90;;;13.15;;
56391;SDS011;42289;53.582;9.714;2022-12-24T05:07:37;36.97;;;12.38;;
56391;SDS011;42289;53.582;9.714;2022-12-24T05:10:04;35.35;;;12.20;;
56391;SDS011;42289;53.582;9.714;2022-12-24T05:12:32;35.53;;;12.55;;
56391;SDS011;42289;53.582;9.714;2022-12-24T05:14:58;35.97;;;12.20;;
56391;SDS011;42289;53.582;9.714;2022-12-24T05:17:26;32.83;;;12.50;;
56391;SDS011;42289;53.582;9.714;2022-12-24T05:19:52;37.25;;;12.43;;
56391;SDS011;42289;53.582;9.714;2022-12-24T05:22:19;36.30;;;12.88;;
56391;SDS011;42289;53.582;9.714;2022-12-24T05:25:03;31.52;;;11.57;;
56391;SDS011;42289;53.582;9.714;2022-12-24T05:27:47;32.05;;;11.15;;
56391;SDS011;42289;53.582;9.714;2022-12-24T05:30:14;35.30;;;11.52;;
56391;SDS011;42289;53.582;9.714;2022-12-24T05:32:42;35.55;;;11.55;;
56391;SDS011;42289;53.582;9.714;2022-12-24T05:35:09;31.92;;;11.60;;
56391;SDS011;42289;53.582;9.714;2022-12-24T05:37:35;34.70;;;12.20;;
56391;SDS011;42289;53.582;9.714;2022-12-24T05:40:02;31.63;;;11.32;;
56391;SDS011;42289;53.582;9.714;2022-12-24T05:42:29;28.90;;;11.10;;
56391;SDS011;42289;53.582;9.714;2022-12-24T05:44:55;29.05;;;11.30;;
56391;SDS011;42289;53.582;9.714;2022-12-24T05:47:22;29.85;;;11.02;;
56391;SDS011;42289;53.582;9.714;2022-12-24T05:49:50;30.38;;;10.77;;
56391;SDS011;42289;53.582;9.714;2022-12-24T05:52:17;28.45;;;11.23;;
56391;SDS011;42289;53.582;9.714;2022-12-24T05:54:43;31.15;;;11.18;;
56391;SDS011;42289;53.582;9.714;2022-12-24T05:57:10;29.95;;;11.25;;
56391;SDS011;42289;53.582;9.714;2022-12-24T05:59:37;32.40;;;10.93;;
56391;SDS011;42289;53.582;9.714;2022-12-24T06:02:04;29.45;;;11.13;;
56391;SDS011;42289;53.582;9.714;2022-12-24T06:04:30;25.10;;;10.63;;
56391;SDS011;42289;53.582;9.714;2022-12-24T06:06:58;31.73;;;11.73;;
56391;SDS011;42289;53.582;9.714;2022-12-24T06:09:24;31.48;;;11.27;;
56391;SDS011;42289;53.582;9.714;2022-12-24T06:11:51;30.20;;;11.50;;
56391;SDS011;42289;53.582;9.714;2022-12-24T06:14:17;29.52;;;11.13;;
56391;SDS011;42289;53.582;9.714;2022-12-24T06:16:43;30.98;;;11.48;;
56391;SDS011;42289;53.582;9.714;2022-12-24T06:19:10;26.42;;;11.15;;
56391;SDS011;42289;53.582;9.714;2022-12-24T06:21:36;29.83;;;10.40;;
56391;SDS011;42289;53.582;9.714;2022-12-24T06:24:04;27.38;;;11.13;;
56391;SDS011;42289;53.582;9.714;2022-12-24T06:26:31;28.40;;;10.98;;
56391;SDS011;42289;53.582;9.714;2022-12-24T06:28:57;29.48;;;10.35;;
56391;SDS011;42289;53.582;9.714;2022-12-24T06:31:24;25.15;;;9.93;;
56391;SDS011;42289;53.582;9.714;2022-12-24T06:33:51;24.15;;;9.10;;
56391;SDS011;42289;53.582;9.714;2022-12-24T06:36:19;25.10;;;9.85;;
56391;SDS011;42289;53.582;9.714;2022-12-24T06:38:47;22.45;;;8.65;;
56391;SDS011;42289;53.582;9.714;2022-12-24T06:41:15;25.80;;;9.93;;
56391;SDS011;42289;53.582;9.714;2022-12-24T06:43:43;20.98;;;8.75;;
56391;SDS011;42289;53.582;9.714;2022-12-24T06:46:10;22.80;;;9.40;;
56391;SDS011;42289;53.582;9.714;2022-12-24T06:48:37;24.55;;;9.32;;
56391;SDS011;42289;53.582;9.714;2022-12-24T06:51:03;22.35;;;9.30;;
56391;SDS011;42289;53.582;9.714;2022-12-24T06:53:30;21.15;;;9.63;;
56391;SDS011;42289;53.582;9.714;2022-12-24T06:56:00;19.98;;;9.18;;
56391;SDS011;42289;53.582;9.714;2022-12-24T06:58:28;18.83;;;8.60;;
56391;SDS011;42289;53.582;9.714;2022-12-24T07:00:55;18.77;;;8.60;;
56391;SDS011;42289;53.582;9.714;2022-12-24T07:03:21;24.88;;;9.27;;
56391;SDS011;42289;53.582;9.714;2022-12-24T07:05:47;21.27;;;8.90;;
56391;SDS011;42289;53.582;9.714;2022-12-24T07:08:14;22.55;;;9.60;;
56391;SDS011;42289;53.582;9.714;2022-12-24T07:10:40;23.88;;;9.77;;
56391;SDS011;42289;53.582;9.714;2022-12-24T07:13:07;22.08;;;9.18;;
56391;SDS011;42289;53.582;9.714;2022-12-24T07:15:34;22.08;;;9.25;;
56391;SDS011;42289;53.582;9.714;2022-12-24T07:18:01;22.23;;;9.50;;
56391;SDS011;42289;53.582;9.714;2022-12-24T07:20:27;21.40;;;9.38;;
56391;SDS011;42289;53.582;9.714;2022-12-24T07:22:53;24.17;;;9.20;;
56391;SDS011;42289;53.582;9.714;2022-12-24T07:25:20;22.23;;;9.20;;
56391;SDS011;42289;53.582;9.714;2022-12-24T07:27:46;24.45;;;9.15;;
56391;SDS011;42289;53.582;9.714;2022-12-24T07:30:13;22.98;;;9.63;;
56391;SDS011;42289;53.582;9.714;2022-12-24T07:32:40;23.60;;;9.45;;
56391;SDS011;42289;53.582;9.714;2022-12-24T07:35:07;24.50;;;9.18;;
56391;SDS011;42289;53.582;9.714;2022-12-24T07:37:34;21.95;;;9.65;;
56391;SDS011;42289;53.582;9.714;2022-12-24T07:40:00;20.98;;;8.88;;
56391;SDS011;42289;53.582;9.714;2022-12-24T07:42:27;22.00;;;8.55;;
56391;SDS011;42289;53.582;9.714;2022-12-24T07:44:53;24.23;;;8.80;;
56391;SDS011;42289;53.582;9.714;2022-12-24T07:47:20;20.25;;;8.55;;
56391;SDS011;42289;53.582;9.714;2022-12-24T07:49:47;21.52;;;8.88;;
56391;SDS011;42289;53.582;9.714;2022-12-24T07:52:14;21.70;;;8.95;;
56391;SDS011;42289;53.582;9.714;2022-12-24T07:54:41;24.17;;;8.73;;
56391;SDS011;42289;53.582;9.714;2022-12-24T07:57:07;21.02;;;8.75;;
56391;SDS011;42289;53.582;9.714;2022-12-24T07:59:33;19.02;;;8.20;;
56391;SDS011;42289;53.582;9.714;2022-12-24T08:02:00;22.25;;;9.05;;
56391;SDS011;42289;53.582;9.714;2022-12-24T08:04:26;20.15;;;8.20;;
56391;SDS011;42289;53.582;9.714;2022-12-24T08:06:54;20.73;;;8.38;;
56391;SDS011;42289;53.582;9.714;2022-12-24T08:09:20;22.98;;;8.68;;
56391;SDS011;42289;53.582;9.714;2022-12-24T08:11:47;20.95;;;8.35;;
56391;SDS011;42289;53.582;9.714;2022-12-24T08:14:13;19.90;;;8.18;;
56391;SDS011;42289;53.582;9.714;2022-12-24T08:16:40;17.17;;;7.55;;
56391;SDS011;42289;53.582;9.714;2022-12-24T08:19:06;22.88;;;8.10;;
56391;SDS011;42289;53.582;9.714;2022-12-24T08:21:33;21.05;;;8.55;;
56391;SDS011;42289;53.582;9.714;2022-12-24T08:24:00;18.35;;;7.40;;
56391;SDS011;42289;53.582;9.714;2022-12-24T08:26:27;23.85;;;9.30;;
56391;SDS011;42289;53.582;9.714;2022-12-24T08:28:53;22.33;;;7.55;;
56391;SDS011;42289;53.582;9.714;2022-12-24T08:31:19;31.83;;;13.82;;
56391;SDS011;42289;53.582;9.714;2022-12-24T08:33:46;58.22;;;21.17;;
56391;SDS011;42289;53.582;9.714;2022-12-24T08:36:12;23.23;;;9.45;;
56391;SDS011;42289;53.582;9.714;2022-12-24T08:38:39;16.13;;;6.75;;
56391;SDS011;42289;53.582;9.714;2022-12-24T08:41:06;17.77;;;7.05;;
56391;SDS011;42289;53.582;9.714;2022-12-24T08:43:33;14.32;;;6.55;;
56391;SDS011;42289;53.582;9.714;2022-12-24T08:46:00;15.27;;;7.25;;
56391;SDS011;42289;53.582;9.714;2022-12-24T08:48:28;20.35;;;7.50;;
56391;SDS011;42289;53.582;9.714;2022-12-24T08:50:55;18.60;;;6.85;;
56391;SDS011;42289;53.582;9.714;2022-12-24T08:53:21;13.60;;;6.25;;
56391;SDS011;42289;53.582;9.714;2022-12-24T08:55:48;15.25;;;6.90;;
56391;SDS011;42289;53.582;9.714;2022-12-24T08:58:15;15.32;;;6.68;;
56391;SDS011;42289;53.582;9.714;2022-12-24T09:00:42;17.10;;;6.60;;
56391;SDS011;42289;53.582;9.714;2022-12-24T09:03:10;14.48;;;6.80;;
56391;SDS011;42289;53.582;9.714;2022-12-24T09:05:39;26.27;;;10.25;;
56391;SDS011;42289;53.582;9.714;2022-12-24T09:08:05;24.58;;;9.73;;
56391;SDS011;42289;53.582;9.714;2022-12-24T09:10:32;15.98;;;8.02;;
56391;SDS011;42289;53.582;9.714;2022-12-24T09:12:58;18.55;;;8.13;;
56391;SDS011;42289;53.582;9.714;2022-12-24T09:15:26;17.65;;;8.15;;
56391;SDS011;42289;53.582;9.714;2022-12-24T09:17:52;21.42;;;8.70;;
56391;SDS011;42289;53.582;9.714;2022-12-24T09:20:19;19.25;;;8.70;;
56391;SDS011;42289;53.582;9.714;2022-12-24T09:22:45;18.77;;;8.70;;
56391;SDS011;42289;53.582;9.714;2022-12-24T09:25:12;18.23;;;8.00;;
56391;SDS011;42289;53.582;9.714;2022-12-24T09:27:38;20.55;;;8.27;;
56391;SDS011;42289;53.582;9.714;2022-12-24T09:30:05;18.23;;;8.40;;
56391;SDS011;42289;53.582;9.714;2022-12-24T09:32:34;18.25;;;8.25;;
56391;SDS011;42289;53.582;9.714;2022-12-24T09:35:00;19.30;;;8.07;;
56391;SDS011;42289;53.582;9.714;2022-12-24T09:37:27;20.65;;;7.97;;
56391;SDS011;42289;53.582;9.714;2022-12-24T09:39:53;20.52;;;8.35;;
56391;SDS011;42289;53.582;9.714;2022-12-24T09:42:22;22.73;;;8.57;;
56391;SDS011;42289;53.582;9.714;2022-12-24T09:45:00;19.48;;;8.55;;
56391;SDS011;42289;53.582;9.714;2022-12-24T09:47:32;22.73;;;9.30;;
56391;SDS011;42289;53.582;9.714;2022-12-24T09:50:04;21.50;;;9.75;;
56391;SDS011;42289;53.582;9.714;2022-12-24T09:52:44;20.25;;;10.02;;
56391;SDS011;42289;53.582;9.714;2022-12-24T09:55:15;21.38;;;8.90;;
56391;SDS011;42289;53.582;9.714;2022-12-24T09:57:48;20.60;;;8.45;;
56391;SDS011;42289;53.582;9.714;2022-12-24T10:00:19;22.88;;;8.60;;
56391;SDS011;42289;53.582;9.714;2022-12-24T10:02:49;21.63;;;9.00;;
56391;SDS011;42289;53.582;9.714;2022-12-24T10:05:16;21.50;;;9.50;;
56391;SDS011;42289;53.582;9.714;2022-12-24T10:07:47;22.83;;;9.02;;
56391;SDS011;42289;53.582;9.714;2022-12-24T10:10:20;22.15;;;9.25;;
56391;SDS011;42289;53.582;9.714;2022-12-24T10:12:56;20.58;;;8.70;;
56391;SDS011;42289;53.582;9.714;2022-12-24T10:15:30;19.20;;;8.85;;
56391;SDS011;42289;53.582;9.714;2022-12-24T10:18:05;21.20;;;9.43;;
56391;SDS011;42289;53.582;9.714;2022-12-24T10:20:41;23.60;;;9.80;;
56391;SDS011;42289;53.582;9.714;2022-12-24T10:23:13;22.45;;;8.98;;
56391;SDS011;42289;53.582;9.714;2022-12-24T10:28:14;25.30;;;11.02;;
56391;SDS011;42289;53.582;9.714;2022-12-24T10:30:43;21.90;;;9.20;;
56391;SDS011;42289;53.582;9.714;2022-12-24T10:33:15;21.90;;;8.70;;
56391;SDS011;42289;53.582;9.714;2022-12-24T10:35:46;21.63;;;8.68;;
56391;SDS011;42289;53.582;9.714;2022-12-24T10:38:16;21.42;;;8.65;;
56391;SDS011;42289;53.582;9.714;2022-12-24T10:40:43;27.30;;;11.00;;
56391;SDS011;42289;53.582;9.714;2022-12-24T10:43:13;23.65;;;8.95;;
56391;SDS011;42289;53.582;9.714;2022-12-24T10:45:41;25.02;;;10.13;;
56391;SDS011;42289;53.582;9.714;2022-12-24T10:48:13;20.25;;;8.68;;
56391;SDS011;42289;53.582;9.714;2022-12-24T10:50:49;21.95;;;9.25;;
56391;SDS011;42289;53.582;9.714;2022-12-24T10:53:19;22.25;;;9.25;;
56391;SDS011;42289;53.582;9.714;2022-12-24T10:55:49;18.52;;;9.20;;
56391;SDS011;42289;53.582;9.714;2022-12-24T10:58:25;26.27;;;10.07;;
56391;SDS011;42289;53.582;9.714;2022-12-24T11:00:52;26.45;;;10.35;;
56391;SDS011;42289;53.582;9.714;2022-12-24T11:03:27;24.73;;;10.77;;
56391;SDS011;42289;53.582;9.714;2022-12-24T11:05:59;24.35;;;10.30;;
56391;SDS011;42289;53.582;9.714;2022-12-24T11:08:33;26.65;;;10.73;;
56391;SDS011;42289;53.582;9.714;2022-12-24T11:11:01;30.23;;;11.38;;
56391;SDS011;42289;53.582;9.714;2022-12-24T11:13:29;21.77;;;10.35;;
56391;SDS011;42289;53.582;9.714;2022-12-24T11:15:58;24.90;;;11.63;;
56391;SDS011;42289;53.582;9.714;2022-12-24T11:18:28;24.80;;;10.88;;
56391;SDS011;42289;53.582;9.714;2022-12-24T11:20:56;27.17;;;10.65;;
56391;SDS011;42289;53.582;9.714;2022-12-24T11:23:25;27.45;;;11.50;;
56391;SDS011;42289;53.582;9.714;2022-12-24T11:25:52;26.70;;;11.15;;
56391;SDS011;42289;53.582;9.714;2022-12-24T11:28:20;25.15;;;11.20;;
56391;SDS011;42289;53.582;9.714;2022-12-24T11:30:54;25.27;;;12.10;;
56391;SDS011;42289;53.582;9.714;2022-12-24T11:33:22;28.17;;;11.52;;
56391;SDS011;42289;53.582;9.714;2022-12-24T11:35:52;30.52;;;13.27;;
56391;SDS011;42289;53.582;9.714;2022-12-24T11:38:25;26.30;;;11.75;;
56391;SDS011;42289;53.582;9.714;2022-12-24T11:40:57;25.48;;;10.63;;
56391;SDS011;42289;53.582;9.714;2022-12-24T11:43:26;31.02;;;12.23;;
56391;SDS011;42289;53.582;9.714;2022-12-24T11:46:12;23.85;;;11.25;;
56391;SDS011;42289;53.582;9.714;2022-12-24T11:48:41;27.63;;;11.83;;
56391;SDS011;42289;53.582;9.714;2022-12-24T11:51:18;32.08;;;13.80;;
56391;SDS011;42289;53.582;9.714;2022-12-24T11:53:47;33.17;;;13.38;;
56391;SDS011;42289;53.582;9.714;2022-12-24T11:56:21;29.77;;;13.27;;
56391;SDS011;42289;53.582;9.714;2022-12-24T11:58:54;32.60;;;14.00;;
56391;SDS011;42289;53.582;9.714;2022-12-24T12:01:27;32.40;;;14.48;;
56391;SDS011;42289;53.582;9.714;2022-12-24T12:03:59;30.77;;;13.37;;
56391;SDS011;42289;53.582;9.714;2022-12-24T12:06:31;39.38;;;16.90;;
56391;SDS011;42289;53.582;9.714;2022-12-24T12:09:03;33.08;;;15.40;;
56391;SDS011;42289;53.582;9.714;2022-12-24T12:11:32;40.13;;;16.00;;
56391;SDS011;42289;53.582;9.714;2022-12-24T12:14:00;39.72;;;15.10;;
56391;SDS011;42289;53.582;9.714;2022-12-24T12:16:29;33.58;;;13.85;;
56391;SDS011;42289;53.582;9.714;2022-12-24T12:19:19;37.97;;;15.00;;
56391;SDS011;42289;53.582;9.714;2022-12-24T12:21:51;38.88;;;14.02;;
56391;SDS011;42289;53.582;9.714;2022-12-24T12:24:19;33.22;;;13.45;;
56391;SDS011;42289;53.582;9.714;2022-12-24T12:26:53;32.92;;;14.35;;
56391;SDS011;42289;53.582;9.714;2022-12-24T12:29:28;37.97;;;13.38;;
56391;SDS011;42289;53.582;9.714;2022-12-24T12:31:58;34.40;;;13.73;;
56391;SDS011;42289;53.582;9.714;2022-12-24T12:34:33;32.88;;;13.20;;
56391;SDS011;42289;53.582;9.714;2022-12-24T12:37:07;30.90;;;12.85;;
56391;SDS011;42289;53.582;9.714;2022-12-24T12:39:39;36.58;;;14.13;;
56391;SDS011;42289;53.582;9.714;2022-12-24T12:42:06;33.70;;;13.48;;
56391;SDS011;42289;53.582;9.714;2022-12-24T12:44:47;37.20;;;14.15;;
56391;SDS011;42289;53.582;9.714;2022-12-24T12:47:26;42.33;;;15.00;;
56391;SDS011;42289;53.582;9.714;2022-12-24T12:50:08;37.65;;;15.45;;
56391;SDS011;42289;53.582;9.714;2022-12-24T12:52:47;35.40;;;14.80;;
56391;SDS011;42289;53.582;9.714;2022-12-24T12:55:28;36.53;;;14.88;;
56391;SDS011;42289;53.582;9.714;2022-12-24T12:58:05;38.35;;;15.25;;
56391;SDS011;42289;53.582;9.714;2022-12-24T13:00:40;36.70;;;14.60;;
56391;SDS011;42289;53.582;9.714;2022-12-24T13:12:15;39.20;;;15.07;;
56391;SDS011;42289;53.582;9.714;2022-12-24T13:15:05;37.60;;;13.88;;
56391;SDS011;42289;53.582;9.714;2022-12-24T13:17:54;36.45;;;13.77;;
56391;SDS011;42289;53.582;9.714;2022-12-24T13:20:34;35.10;;;13.32;;
56391;SDS011;42289;53.582;9.714;2022-12-24T13:25:40;39.17;;;13.48;;
56391;SDS011;42289;53.582;9.714;2022-12-24T13:28:15;38.20;;;12.75;;
56391;SDS011;42289;53.582;9.714;2022-12-24T13:30:42;38.63;;;13.18;;
56391;SDS011;42289;53.582;9.714;2022-12-24T13:33:09;49.67;;;13.57;;
56391;SDS011;42289;53.582;9.714;2022-12-24T13:35:38;39.05;;;12.38;;
56391;SDS011;42289;53.582;9.714;2022-12-24T13:44:22;35.20;;;9.50;;
56391;SDS011;42289;53.582;9.714;2022-12-24T13:46:53;37.08;;;10.38;;
56391;SDS011;42289;53.582;9.714;2022-12-24T13:49:27;37.80;;;9.57;;
56391;SDS011;42289;53.582;9.714;2022-12-24T13:52:05;44.10;;;9.30;;
56391;SDS011;42289;53.582;9.714;2022-12-24T13:54:39;37.95;;;9.02;;
56391;SDS011;42289;53.582;9.714;2022-12-24T13:59:56;37.30;;;9.10;;
56391;SDS011;42289;53.582;9.714;2022-12-24T14:02:26;42.58;;;9.40;;
56391;SDS011;42289;53.582;9.714;2022-12-24T14:04:59;45.45;;;9.43;;
56391;SDS011;42289;53.582;9.714;2022-12-24T14:07:32;37.28;;;9.02;;
56391;SDS011;42289;53.582;9.714;2022-12-24T14:09:59;50.45;;;10.05;;
56391;SDS011;42289;53.582;9.714;2022-12-24T14:12:33;48.40;;;16.08;;
56391;SDS011;42289;53.582;9.714;2022-12-24T14:18:28;46.50;;;8.90;;
56391;SDS011;42289;53.582;9.714;2022-12-24T14:20:58;33.47;;;7.53;;
56391;SDS011;42289;53.582;9.714;2022-12-24T14:23:29;38.05;;;7.70;;
56391;SDS011;42289;53.582;9.714;2022-12-24T14:26:00;38.78;;;7.80;;
56391;SDS011;42289;53.582;9.714;2022-12-24T14:28:30;38.20;;;7.70;;
56391;SDS011;42289;53.582;9.714;2022-12-24T14:31:03;29.02;;;7.43;;
56391;SDS011;42289;53.582;9.714;2022-12-24T14:33:31;40.20;;;8.45;;
56391;SDS011;42289;53.582;9.714;2022-12-24T14:35:58;31.40;;;8.15;;
56391;SDS011;42289;53.582;9.714;2022-12-24T14:38:26;28.92;;;7.72;;
56391;SDS011;42289;53.582;9.714;2022-12-24T14:40:54;26.48;;;6.93;;
56391;SDS011;42289;53.582;9.714;2022-12-24T14:43:34;36.70;;;8.32;;
56391;SDS011;42289;53.582;9.714;2022-12-24T14:46:16;35.13;;;8.52;;
56391;SDS011;42289;53.582;9.714;2022-12-24T14:48:50;36.53;;;8.40;;
56391;SDS011;42289;53.582;9.714;2022-12-24T14:51:21;33.10;;;8.98;;
56391;SDS011;42289;53.582;9.714;2022-12-24T14:54:09;34.40;;;8.68;;
56391;SDS011;42289;53.582;9.714;2022-12-24T14:56:46;40.40;;;9.18;;
56391;SDS011;42289;53.582;9.714;2022-12-24T14:59:15;37.20;;;8.80;;
56391;SDS011;42289;53.582;9.714;2022-12-24T15:01:45;36.58;;;9.20;;
56391;SDS011;42289;53.582;9.714;2022-12-24T15:04:13;27.83;;;8.82;;
56391;SDS011;42289;53.582;9.714;2022-12-24T15:06:42;37.88;;;9.07;;
56391;SDS011;42289;53.582;9.714;2022-12-24T15:09:13;34.17;;;8.82;;
56391;SDS011;42289;53.582;9.714;2022-12-24T15:11:44;39.60;;;10.80;;